DLH2MA EDDM-EDDF
Flight info
| Callsign | DLH2MA |
|---|---|
| Flight time | 0h 30m |
| Altitude | 24000 |
| Route | GIVMI6S GIVMI Y101 ERNAS T161 DEBHI DEBHI1B |
| Aircraft | A320/M-SDE3FGHIRWY/LB1 |
Departure
| Time | 2026-05-07 14:04 |
|---|---|
| Airport | Munich Airport (EDDM) |
Arrival
| Time | 2026-05-07 14:35 |
|---|---|
| Airport | Frankfurt Main Airport (EDDF) |
| Time | Latitude | Longitude | Altitude | Speed | Heading |
|---|---|---|---|---|---|
| 2026-05-07 13:43 | 48.35133 | 11.79358 | 1486 ft | 0 kts | 263° |
| 2026-05-07 13:54 | 48.35135 | 11.79373 | 1486 ft | 3 kts | 263° |
| 2026-05-07 13:54 | 48.35137 | 11.79410 | 1482 ft | 3 kts | 265° |
| 2026-05-07 13:54 | 48.35139 | 11.79446 | 1476 ft | 3 kts | 269° |
| 2026-05-07 13:55 | 48.35138 | 11.79482 | 1477 ft | 3 kts | 286° |
| 2026-05-07 13:55 | 48.35128 | 11.79508 | 1474 ft | 3 kts | 343° |
| 2026-05-07 13:55 | 48.35124 | 11.79510 | 1473 ft | 0 kts | 354° |
| 2026-05-07 13:58 | 48.35148 | 11.79506 | 1478 ft | 9 kts | 354° |
| 2026-05-07 13:59 | 48.35247 | 11.79490 | 1477 ft | 19 kts | 353° |
| 2026-05-07 13:59 | 48.35392 | 11.79465 | 1485 ft | 22 kts | 354° |
| 2026-05-07 13:59 | 48.35546 | 11.79438 | 1485 ft | 23 kts | 353° |
| 2026-05-07 13:59 | 48.35707 | 11.79409 | 1485 ft | 24 kts | 353° |
| 2026-05-07 14:00 | 48.35871 | 11.79381 | 1485 ft | 24 kts | 354° |
| 2026-05-07 14:00 | 48.36003 | 11.79331 | 1483 ft | 20 kts | 355° |
| 2026-05-07 14:00 | 48.36148 | 11.79305 | 1481 ft | 22 kts | 356° |
| 2026-05-07 14:00 | 48.36211 | 11.79433 | 1477 ft | 18 kts | 84° |
| 2026-05-07 14:01 | 48.36226 | 11.79629 | 1482 ft | 20 kts | 83° |
| 2026-05-07 14:01 | 48.36243 | 11.79848 | 1483 ft | 22 kts | 84° |
| 2026-05-07 14:01 | 48.36261 | 11.80091 | 1485 ft | 24 kts | 83° |
| 2026-05-07 14:01 | 48.36282 | 11.80356 | 1474 ft | 27 kts | 83° |
| 2026-05-07 14:02 | 48.36308 | 11.80642 | 1478 ft | 28 kts | 84° |
| 2026-05-07 14:02 | 48.36327 | 11.80942 | 1481 ft | 26 kts | 83° |
| 2026-05-07 14:02 | 48.36347 | 11.81205 | 1485 ft | 26 kts | 83° |
| 2026-05-07 14:02 | 48.36369 | 11.81484 | 1485 ft | 27 kts | 83° |
| 2026-05-07 14:03 | 48.36391 | 11.81774 | 1476 ft | 28 kts | 84° |
| 2026-05-07 14:03 | 48.36448 | 11.82000 | 1484 ft | 23 kts | 16° |
| 2026-05-07 14:03 | 48.36603 | 11.81976 | 1485 ft | 23 kts | 353° |
| 2026-05-07 14:03 | 48.36663 | 11.81796 | 1477 ft | 28 kts | 264° |
| 2026-05-07 14:04 | 48.36616 | 11.81174 | 1485 ft | 93 kts | 263° |
| 2026-05-07 14:04 | 48.36519 | 11.79911 | 1480 ft | 148 kts | 263° |
| 2026-05-07 14:04 | 48.36394 | 11.78205 | 1740 ft | 168 kts | 267° |
| 2026-05-07 14:04 | 48.36269 | 11.76467 | 2493 ft | 167 kts | 265° |
| 2026-05-07 14:05 | 48.36139 | 11.74700 | 2991 ft | 178 kts | 266° |
| 2026-05-07 14:05 | 48.35990 | 11.72733 | 3270 ft | 201 kts | 265° |
| 2026-05-07 14:05 | 48.35821 | 11.70556 | 3660 ft | 217 kts | 265° |
| 2026-05-07 14:05 | 48.35793 | 11.68273 | 4339 ft | 220 kts | 282° |
| 2026-05-07 14:06 | 48.36413 | 11.66125 | 4923 ft | 235 kts | 300° |
| 2026-05-07 14:06 | 48.37302 | 11.63936 | 5403 ft | 253 kts | 301° |
| 2026-05-07 14:06 | 48.38239 | 11.61671 | 6246 ft | 257 kts | 300° |
| 2026-05-07 14:06 | 48.39193 | 11.59369 | 7085 ft | 261 kts | 300° |
| 2026-05-07 14:07 | 48.40206 | 11.57081 | 7879 ft | 266 kts | 310° |
| 2026-05-07 14:07 | 48.41702 | 11.55401 | 8683 ft | 275 kts | 332° |
| 2026-05-07 14:07 | 48.43463 | 11.54225 | 9521 ft | 279 kts | 333° |
| 2026-05-07 14:07 | 48.45253 | 11.53045 | 10282 ft | 284 kts | 333° |
| 2026-05-07 14:08 | 48.47160 | 11.51780 | 10562 ft | 307 kts | 333° |
| 2026-05-07 14:08 | 48.49188 | 11.50432 | 10769 ft | 330 kts | 333° |
| 2026-05-07 14:08 | 48.51365 | 11.48986 | 10985 ft | 351 kts | 334° |
| 2026-05-07 14:08 | 48.53599 | 11.47506 | 11547 ft | 358 kts | 334° |
| 2026-05-07 14:09 | 48.55926 | 11.45965 | 12231 ft | 363 kts | 334° |
| 2026-05-07 14:09 | 48.58244 | 11.44423 | 12924 ft | 366 kts | 334° |
| 2026-05-07 14:09 | 48.60586 | 11.42860 | 13604 ft | 370 kts | 334° |
| 2026-05-07 14:09 | 48.62950 | 11.41277 | 14227 ft | 373 kts | 333° |
| 2026-05-07 14:10 | 48.65333 | 11.39680 | 14831 ft | 376 kts | 333° |
| 2026-05-07 14:10 | 48.67738 | 11.38068 | 15422 ft | 380 kts | 333° |
| 2026-05-07 14:10 | 48.70138 | 11.36364 | 16012 ft | 382 kts | 328° |
| 2026-05-07 14:10 | 48.72375 | 11.34205 | 16620 ft | 383 kts | 324° |
| 2026-05-07 14:11 | 48.74594 | 11.31955 | 17237 ft | 385 kts | 324° |
| 2026-05-07 14:11 | 48.76832 | 11.29688 | 17880 ft | 388 kts | 324° |
| 2026-05-07 14:11 | 48.79081 | 11.27409 | 18460 ft | 390 kts | 324° |
| 2026-05-07 14:11 | 48.81343 | 11.25113 | 18963 ft | 393 kts | 324° |
| 2026-05-07 14:12 | 48.83621 | 11.22796 | 19492 ft | 396 kts | 323° |
| 2026-05-07 14:12 | 48.85762 | 11.20163 | 20066 ft | 397 kts | 315° |
| 2026-05-07 14:12 | 48.87802 | 11.17312 | 20685 ft | 401 kts | 315° |
| 2026-05-07 14:12 | 48.89865 | 11.14436 | 21204 ft | 403 kts | 316° |
| 2026-05-07 14:13 | 48.91938 | 11.11548 | 21663 ft | 406 kts | 316° |
| 2026-05-07 14:13 | 48.94023 | 11.08641 | 22040 ft | 410 kts | 316° |
| 2026-05-07 14:13 | 48.96150 | 11.05672 | 22172 ft | 419 kts | 316° |
| 2026-05-07 14:13 | 48.98314 | 11.02644 | 22310 ft | 426 kts | 316° |
| 2026-05-07 14:14 | 49.00509 | 10.99567 | 22456 ft | 432 kts | 316° |
| 2026-05-07 14:14 | 49.02740 | 10.96435 | 22616 ft | 438 kts | 316° |
| 2026-05-07 14:14 | 49.04992 | 10.93266 | 22753 ft | 443 kts | 316° |
| 2026-05-07 14:14 | 49.07264 | 10.90064 | 22896 ft | 447 kts | 316° |
| 2026-05-07 14:15 | 49.09555 | 10.86840 | 23095 ft | 449 kts | 316° |
| 2026-05-07 14:15 | 49.11854 | 10.83604 | 23313 ft | 450 kts | 316° |
| 2026-05-07 14:15 | 49.14159 | 10.80351 | 23542 ft | 452 kts | 316° |
| 2026-05-07 14:15 | 49.16464 | 10.77083 | 23721 ft | 453 kts | 316° |
| 2026-05-07 14:16 | 49.18773 | 10.73801 | 23874 ft | 454 kts | 316° |
| 2026-05-07 14:16 | 49.21066 | 10.70480 | 24021 ft | 454 kts | 315° |
| 2026-05-07 14:16 | 49.23300 | 10.67070 | 24049 ft | 454 kts | 313° |
| 2026-05-07 14:16 | 49.25484 | 10.63600 | 24053 ft | 453 kts | 313° |
| 2026-05-07 14:17 | 49.27658 | 10.60086 | 24052 ft | 456 kts | 313° |
| 2026-05-07 14:17 | 49.29839 | 10.56552 | 24055 ft | 457 kts | 313° |
| 2026-05-07 14:17 | 49.32029 | 10.53020 | 24054 ft | 457 kts | 313° |
| 2026-05-07 14:17 | 49.34232 | 10.49497 | 24055 ft | 458 kts | 313° |
| 2026-05-07 14:18 | 49.36363 | 10.45871 | 24044 ft | 457 kts | 308° |
| 2026-05-07 14:18 | 49.38192 | 10.41972 | 24045 ft | 457 kts | 305° |
| 2026-05-07 14:18 | 49.40023 | 10.37977 | 24045 ft | 456 kts | 305° |
| 2026-05-07 14:18 | 49.41215 | 10.35374 | 24037 ft | 443 kts | 305° |
| 2026-05-07 14:19 | 49.42959 | 10.31565 | 23225 ft | 434 kts | 304° |
| 2026-05-07 14:19 | 49.44709 | 10.27734 | 21811 ft | 442 kts | 304° |
| 2026-05-07 14:19 | 49.46484 | 10.23836 | 21257 ft | 434 kts | 304° |
| 2026-05-07 14:19 | 49.48186 | 10.20093 | 20934 ft | 431 kts | 304° |
| 2026-05-07 14:20 | 49.49916 | 10.16271 | 20475 ft | 428 kts | 304° |
| 2026-05-07 14:20 | 49.51609 | 10.12517 | 20050 ft | 426 kts | 304° |
| 2026-05-07 14:20 | 49.53272 | 10.08828 | 19634 ft | 424 kts | 304° |
| 2026-05-07 14:20 | 49.54954 | 10.05100 | 19189 ft | 424 kts | 304° |
| 2026-05-07 14:21 | 49.56652 | 10.01333 | 18753 ft | 422 kts | 304° |
| 2026-05-07 14:21 | 49.58319 | 9.97630 | 18321 ft | 419 kts | 304° |
| 2026-05-07 14:21 | 49.59974 | 9.93952 | 17860 ft | 416 kts | 304° |
| 2026-05-07 14:21 | 49.61598 | 9.90338 | 17451 ft | 415 kts | 304° |
| 2026-05-07 14:22 | 49.63784 | 9.85461 | 16884 ft | 412 kts | 304° |
| 2026-05-07 14:22 | 49.64882 | 9.83008 | 16595 ft | 410 kts | 304° |
| 2026-05-07 14:22 | 49.66477 | 9.79438 | 16184 ft | 408 kts | 304° |
| 2026-05-07 14:22 | 49.68102 | 9.75798 | 15769 ft | 405 kts | 304° |
| 2026-05-07 14:23 | 49.69699 | 9.72218 | 15358 ft | 403 kts | 304° |
| 2026-05-07 14:23 | 49.71284 | 9.68664 | 14947 ft | 401 kts | 304° |
| 2026-05-07 14:23 | 49.72859 | 9.65126 | 14542 ft | 398 kts | 304° |
| 2026-05-07 14:23 | 49.74424 | 9.61600 | 14136 ft | 396 kts | 304° |
| 2026-05-07 14:24 | 49.75977 | 9.58095 | 13715 ft | 394 kts | 304° |
| 2026-05-07 14:24 | 49.77519 | 9.54609 | 13303 ft | 392 kts | 304° |
| 2026-05-07 14:24 | 49.79052 | 9.51138 | 12906 ft | 390 kts | 304° |
| 2026-05-07 14:24 | 49.80577 | 9.47682 | 12510 ft | 388 kts | 304° |
| 2026-05-07 14:25 | 49.82095 | 9.44241 | 12117 ft | 385 kts | 304° |
| 2026-05-07 14:25 | 49.83095 | 9.41972 | 11859 ft | 384 kts | 304° |
| 2026-05-07 14:25 | 49.85092 | 9.37411 | 11360 ft | 381 kts | 304° |
| 2026-05-07 14:25 | 49.86775 | 9.34341 | 11069 ft | 366 kts | 315° |
| 2026-05-07 14:26 | 49.88507 | 9.31644 | 11032 ft | 336 kts | 314° |
| 2026-05-07 14:26 | 49.90069 | 9.29185 | 10987 ft | 306 kts | 314° |
| 2026-05-07 14:26 | 49.91511 | 9.26899 | 10684 ft | 290 kts | 314° |
| 2026-05-07 14:26 | 49.92885 | 9.24717 | 10148 ft | 284 kts | 314° |
| 2026-05-07 14:27 | 49.94246 | 9.22557 | 9828 ft | 277 kts | 314° |
| 2026-05-07 14:27 | 49.95617 | 9.20379 | 9565 ft | 280 kts | 314° |
| 2026-05-07 14:27 | 49.96980 | 9.18210 | 9145 ft | 280 kts | 314° |
| 2026-05-07 14:27 | 49.98336 | 9.16058 | 8714 ft | 279 kts | 314° |
| 2026-05-07 14:28 | 49.99678 | 9.13930 | 8279 ft | 273 kts | 314° |
| 2026-05-07 14:28 | 50.00994 | 9.11840 | 7788 ft | 269 kts | 314° |
| 2026-05-07 14:28 | 50.02312 | 9.09752 | 7347 ft | 271 kts | 314° |
| 2026-05-07 14:28 | 50.03631 | 9.07659 | 6896 ft | 271 kts | 314° |
| 2026-05-07 14:29 | 50.04943 | 9.05576 | 6531 ft | 268 kts | 314° |
| 2026-05-07 14:29 | 50.06249 | 9.03499 | 6150 ft | 265 kts | 314° |
| 2026-05-07 14:29 | 50.07356 | 9.01257 | 5795 ft | 260 kts | 294° |
| 2026-05-07 14:29 | 50.07905 | 8.98596 | 5473 ft | 256 kts | 285° |
| 2026-05-07 14:30 | 50.08316 | 8.95973 | 5345 ft | 244 kts | 284° |
| 2026-05-07 14:30 | 50.08699 | 8.93461 | 5180 ft | 234 kts | 284° |
| 2026-05-07 14:30 | 50.09068 | 8.91032 | 5051 ft | 228 kts | 284° |
| 2026-05-07 14:30 | 50.09426 | 8.88653 | 4917 ft | 224 kts | 284° |
| 2026-05-07 14:31 | 50.09778 | 8.86326 | 4786 ft | 218 kts | 284° |
| 2026-05-07 14:31 | 50.09914 | 8.84014 | 4648 ft | 213 kts | 263° |
| 2026-05-07 14:31 | 50.09500 | 8.81858 | 4515 ft | 205 kts | 252° |
| 2026-05-07 14:31 | 50.09018 | 8.79822 | 4409 ft | 195 kts | 251° |
| 2026-05-07 14:32 | 50.08565 | 8.77902 | 4267 ft | 184 kts | 251° |
| 2026-05-07 14:32 | 50.08129 | 8.76054 | 3927 ft | 185 kts | 252° |
| 2026-05-07 14:32 | 50.07675 | 8.74146 | 3432 ft | 187 kts | 251° |
| 2026-05-07 14:32 | 50.07228 | 8.72266 | 2958 ft | 183 kts | 251° |
| 2026-05-07 14:33 | 50.06805 | 8.70422 | 2492 ft | 179 kts | 256° |
| 2026-05-07 14:33 | 50.06593 | 8.68557 | 2080 ft | 169 kts | 265° |
| 2026-05-07 14:33 | 50.06435 | 8.66782 | 1643 ft | 165 kts | 259° |
| 2026-05-07 14:33 | 50.06068 | 8.65123 | 1286 ft | 159 kts | 250° |
| 2026-05-07 14:34 | 50.05680 | 8.63572 | 1006 ft | 147 kts | 251° |
| 2026-05-07 14:34 | 50.05338 | 8.62127 | 820 ft | 139 kts | 251° |
| 2026-05-07 14:34 | 50.05002 | 8.60739 | 661 ft | 135 kts | 250° |
| 2026-05-07 14:34 | 50.04673 | 8.59374 | 508 ft | 134 kts | 249° |
| 2026-05-07 14:35 | 50.04351 | 8.58029 | 379 ft | 128 kts | 250° |
| 2026-05-07 14:35 | 50.04081 | 8.56890 | 366 ft | 91 kts | 250° |
| 2026-05-07 14:35 | 50.03924 | 8.56223 | 353 ft | 37 kts | 250° |
| 2026-05-07 14:35 | 50.03885 | 8.55933 | 351 ft | 27 kts | 273° |
| 2026-05-07 14:36 | 50.03904 | 8.55685 | 348 ft | 10 kts | 281° |
| 2026-05-07 14:36 | 50.03906 | 8.55670 | 352 ft | 0 kts | 281° |
| 2026-05-07 14:37 | 50.03928 | 8.55632 | 356 ft | 10 kts | 333° |
| 2026-05-07 14:37 | 50.03984 | 8.55686 | 352 ft | 10 kts | 59° |
| 2026-05-07 14:38 | 50.04006 | 8.55772 | 352 ft | 8 kts | 69° |
| 2026-05-07 14:38 | 50.04023 | 8.55841 | 352 ft | 6 kts | 69° |
| 2026-05-07 14:38 | 50.04039 | 8.55908 | 356 ft | 9 kts | 69° |
| 2026-05-07 14:38 | 50.04065 | 8.56018 | 351 ft | 13 kts | 69° |
| 2026-05-07 14:39 | 50.04104 | 8.56177 | 357 ft | 18 kts | 69° |
| 2026-05-07 14:39 | 50.04180 | 8.56274 | 354 ft | 14 kts | 345° |
| 2026-05-07 14:39 | 50.04271 | 8.56216 | 361 ft | 15 kts | 324° |
| 2026-05-07 14:39 | 50.04314 | 8.56075 | 362 ft | 16 kts | 318° |
| 2026-05-07 14:40 | 50.04419 | 8.56038 | 359 ft | 17 kts | 23° |
| 2026-05-07 14:40 | 50.04470 | 8.56188 | 356 ft | 10 kts | 70° |
| 2026-05-07 14:40 | 50.04464 | 8.56252 | 359 ft | 6 kts | 147° |
| 2026-05-07 14:40 | 50.04432 | 8.56268 | 360 ft | 4 kts | 162° |
| 2026-05-07 14:41 | 50.04418 | 8.56275 | 360 ft | 0 kts | 162° |